Date,TemperatureHighF,TemperatureAvgF,TemperatureLowF,DewpointHighF,DewpointAvgF,DewpointLowF,HumidityHigh,HumidityAvg,HumidityLow,PressureMaxIn,PressureMinIn,WindSpeedMaxMPH,WindSpeedAvgMPH,GustSpeedMaxMPH,PrecipitationSumIn
2013-1-1,51,39,30,21,17,14,67,43,23,30.63,30.49,4,1,10,0.00
2013-1-2,55,42,31,21,17,14,58,39,22,30.58,30.40,5,1,10,0.00
2013-1-3,55,43,33,15,11,4,44,28,14,30.61,30.48,9,1,13,0.00
2013-1-4,56,39,28,17,13,10,58,37,17,30.63,30.50,3,0,5,0.00
2013-1-5,55,40,26,20,16,12,64,41,19,30.67,30.45,3,0,5,0.00
2013-1-6,53,43,35,24,21,18,55,42,27,30.45,30.21,5,1,8,0.00
2013-1-7,63,49,39,25,19,14,56,33,16,30.35,30.23,6,1,8,0.00
2013-1-8,68,53,42,32,26,17,52,37,25,30.45,30.29,3,1,9,0.00
2013-1-9,66,51,39,35,31,29,73,50,27,30.46,30.08,5,0,6,0.00
2013-1-10,58,49,40,36,23,6,59,38,19,30.11,29.89,11,3,25,0.00
2013-1-11,48,40,34,19,12,9,47,33,20,30.30,30.11,9,2,15,0.00
2013-1-12,46,35,28,13,9,5,52,36,20,30.41,30.29,8,1,13,0.00
2013-1-13,42,33,24,10,6,0,50,34,22,30.51,30.38,8,1,11,0.00
2013-1-14,40,32,26,4,1,-2,35,28,17,30.73,30.51,8,2,11,0.00
2013-1-15,47,36,24,16,10,3,48,35,24,30.86,30.73,6,1,8,0.00
2013-1-16,58,43,30,23,20,15,63,42,26,30.80,30.59,7,1,11,0.00
2013-1-17,64,47,34,21,17,14,52,33,15,30.69,30.52,5,1,9,0.00
2013-1-18,62,47,33,21,18,16,56,34,17,30.62,30.46,4,1,6,0.00
2013-1-19,66,48,34,20,17,13,53,32,13,30.62,30.46,4,1,6,0.00
2013-1-20,69,48,33,19,17,12,54,31,12,30.54,30.39,5,1,7,0.00
2013-1-21,68,52,37,18,14,9,42,25,10,30.53,30.38,4,1,8,0.00
2013-1-22,65,52,44,21,19,15,39,28,15,30.44,30.38,2,0,5,0.00
2013-1-23,67,52,39,27,23,20,51,34,17,30.49,30.35,2,0,3,0.00
2013-1-24,58,54,50,46,40,26,78,61,37,30.47,30.34,3,0,7,0.02
2013-1-25,67,57,48,51,45,41,87,64,44,30.47,30.22,3,0,5,0.03
2013-1-26,60,55,51,54,52,49,96,89,77,30.21,30.02,5,0,6,0.33
2013-1-27,64,56,47,51,40,30,96,56,39,30.07,29.98,14,4,23,0.00
2013-1-28,53,47,40,31,20,14,54,36,22,30.30,30.08,13,3,20,0.00
2013-1-29,60,48,39,31,26,20,58,43,29,30.48,30.24,9,2,15,0.00
2013-1-30,63,50,37,34,30,27,73,50,29,30.58,30.44,3,0,7,0.00
2013-1-31,70,52,38,37,34,31,79,54,26,30.54,30.38,3,0,6,0.00
2013-2-1,68,52,38,36,34,32,80,53,29,30.49,30.38,2,0,5,0.00
2013-2-2,69,57,44,37,32,26,71,43,21,30.55,30.38,5,1,7,0.00
2013-2-3,72,59,50,37,34,32,55,40,25,30.38,30.19,3,0,7,0.00
2013-2-4,72,57,44,36,31,26,68,41,19,30.34,30.19,3,0,8,0.00
2013-2-5,69,55,41,33,30,27,67,41,21,30.25,30.05,5,0,9,0.00
2013-2-6,73,60,49,33,27,20,51,31,15,30.25,30.02,8,1,11,0.00
2013-2-7,71,57,41,29,26,21,56,32,20,30.31,29.94,8,2,17,0.00
2013-2-8,59,52,45,33,26,21,54,38,25,29.96,29.88,17,6,33,0.00
2013-2-9,57,49,42,32,26,21,64,42,26,30.19,29.93,11,2,15,0.00
2013-2-10,57,47,39,27,21,16,51,37,20,30.27,30.12,8,2,17,0.00
2013-2-11,54,45,34,27,17,12,59,36,19,30.48,30.27,9,1,13,0.00
2013-2-12,59,45,34,20,16,14,51,33,18,30.61,30.48,4,0,8,0.00
2013-2-13,66,51,36,27,23,18,53,35,21,30.54,30.36,5,1,7,0.00
2013-2-14,68,56,40,29,27,25,59,35,20,30.52,30.36,10,2,13,0.00
2013-2-15,70,56,42,27,24,21,53,32,16,30.62,30.49,8,1,13,0.00
2013-2-16,70,54,40,27,24,20,57,34,15,30.57,30.20,5,0,6,0.00
2013-2-17,76,57,39,25,19,9,53,27,9,30.20,29.97,7,1,11,0.00
2013-2-18,66,55,43,24,22,18,44,29,17,30.29,30.06,4,1,10,0.00
2013-2-19,68,53,38,31,26,22,56,37,19,30.06,29.75,15,3,26,0.00
2013-2-20,60,50,41,40,34,28,79,56,33,30.07,29.71,7,1,15,0.01
2013-2-21,59,46,36,35,25,15,83,50,19,30.30,30.07,3,0,6,0.00
2013-2-22,61,49,36,21,18,16,50,32,18,30.42,30.30,5,1,7,0.00
2013-2-23,66,50,38,26,20,8,52,31,17,30.32,30.04,10,3,20,0.00
2013-2-24,59,49,40,14,11,6,30,22,13,30.46,30.31,9,2,17,0.00
2013-2-25,60,48,35,19,15,12,48,28,16,30.51,30.22,6,1,9,0.00
2013-2-26,61,50,36,18,13,7,46,26,12,30.49,30.28,13,3,17,0.00
2013-2-27,62,49,36,16,11,3,45,23,10,30.63,30.50,9,1,11,0.00
2013-2-28,70,52,34,20,14,10,48,25,10,30.67,30.53,4,0,5,0.00
2013-3-1,77,60,41,30,24,18,42,27,16,30.67,30.46,5,1,7,0.00
2013-3-2,78,63,46,33,31,24,56,32,18,30.52,30.19,5,1,8,0.00
2013-3-3,78,71,61,36,30,22,36,22,17,30.19,29.90,18,6,27,0.00
2013-3-4,75,64,54,40,34,25,52,34,18,30.25,29.96,12,2,17,0.00
2013-3-5,76,63,47,35,31,28,52,32,19,30.30,30.04,10,2,16,0.00
2013-3-6,72,64,57,36,32,24,44,31,18,30.10,29.98,14,4,27,0.00
2013-3-7,66,59,53,35,33,30,48,38,27,30.07,29.97,14,4,25,0.00
2013-3-8,56,51,46,45,38,34,78,63,45,30.04,29.87,12,3,25,0.07
2013-3-9,65,55,48,40,37,31,69,53,30,30.38,30.04,8,2,16,0.00
2013-3-10,70,58,45,39,26,19,68,33,16,30.52,30.36,7,1,14,0.00
2013-3-11,76,59,42,30,27,25,57,33,16,30.44,30.24,4,0,7,0.00
2013-3-12,81,64,47,33,31,28,52,31,16,30.37,30.23,4,1,7,0.00
2013-3-13,86,68,52,37,34,30,51,30,15,30.41,30.25,5,1,8,0.00
2013-3-14,89,71,53,37,32,23,52,27,10,30.37,30.16,4,0,7,0.00
2013-3-15,89,73,57,37,33,24,44,25,12,30.18,29.95,7,1,9,0.00
2013-3-16,90,77,63,36,24,11,31,16,7,30.00,29.82,8,2,14,0.00
2013-3-17,84,75,68,27,14,4,19,11,5,30.03,29.83,10,3,15,0.00
2013-3-18,80,69,57,23,15,9,22,13,7,30.17,29.98,6,1,9,0.00
2013-3-19,82,70,59,29,24,19,26,18,11,30.18,30.02,10,1,12,0.00
2013-3-20,77,71,62,38,32,27,32,24,19,30.14,29.91,15,3,23,0.00
2013-3-21,82,69,55,37,22,-1,48,22,4,29.99,29.84,16,3,20,0.00
2013-3-22,77,67,57,20,4,-20,23,11,2,30.02,29.86,9,3,18,0.00
2013-3-23,63,56,47,14,9,-20,23,16,3,30.36,30.03,13,3,17,0.00
2013-3-24,72,59,44,22,12,5,30,18,8,30.32,30.11,4,1,8,0.00
2013-3-25,78,65,50,23,18,13,30,18,10,30.23,30.02,7,1,8,0.00
2013-3-26,83,69,56,31,23,13,34,19,8,30.04,29.88,8,2,17,0.00
2013-3-27,81,71,62,37,32,27,35,25,14,30.03,29.92,13,3,19,0.00
2013-3-28,81,70,63,40,36,32,40,30,17,30.13,30.03,11,3,16,0.00
2013-3-29,87,72,55,37,33,25,47,26,14,30.25,30.09,8,1,9,0.00
2013-3-30,86,71,59,37,33,28,40,25,14,30.20,30.05,3,0,10,0.00
2013-3-31,84,72,56,41,37,29,46,29,17,30.11,29.95,17,4,22,0.00
2013-4-1,80,68,59,41,36,29,50,32,18,30.11,30.00,15,4,27,0.00
2013-4-2,82,69,57,36,32,30,38,27,17,30.16,30.05,6,1,12,0.00
2013-4-3,86,72,57,40,34,27,49,27,12,30.25,30.09,8,1,8,0.00
2013-4-4,90,75,57,42,33,27,44,24,11,30.16,29.96,8,2,18,0.00
2013-4-5,88,76,64,43,35,25,42,24,12,30.05,29.92,11,4,23,0.00
2013-4-6,86,75,65,35,31,26,31,21,12,29.99,29.91,8,3,16,0.00
2013-4-7,89,77,63,38,30,19,35,20,8,29.98,29.64,10,3,21,0.00
2013-4-8,74,62,49,44,33,19,78,39,13,29.79,29.47,15,4,31,0.08
2013-4-9,71,61,54,26,23,20,28,23,15,30.24,29.80,16,6,27,0.00
2013-4-10,77,63,47,27,23,17,43,24,11,30.33,30.09,5,1,12,0.00
2013-4-11,82,67,50,32,26,22,40,23,11,30.11,29.85,4,1,8,0.00
2013-4-12,86,72,57,36,32,27,42,24,14,30.02,29.85,5,1,8,0.00
2013-4-13,89,77,59,34,29,20,37,19,8,29.90,29.62,23,6,26,0.00
2013-4-14,90,78,67,39,34,29,34,21,14,29.80,29.53,16,4,24,0.00
2013-4-15,80,70,62,35,31,23,34,24,13,29.72,29.55,19,8,33,0.00
2013-4-16,67,60,52,36,29,22,46,32,19,30.07,29.67,21,7,31,0.00
2013-4-17,69,58,48,31,21,11,52,25,11,30.39,30.08,14,4,22,0.00
2013-4-18,71,59,44,22,16,10,40,21,10,30.50,30.36,10,2,14,0.00
2013-4-19,80,66,47,24,16,12,35,16,8,30.44,30.07,8,2,13,0.00
2013-4-20,86,72,56,31,23,11,26,17,10,30.20,30.04,7,1,11,0.00
2013-4-21,93,76,56,31,25,16,34,17,7,30.18,29.95,8,2,14,0.00
2013-4-22,95,83,63,34,26,15,29,13,7,30.01,29.76,12,2,17,0.00
2013-4-23,79,68,60,27,16,7,19,14,8,30.25,29.89,14,5,23,0.00
2013-4-24,82,69,53,21,13,3,29,13,5,30.17,29.97,8,2,13,0.00
2013-4-25,88,74,55,30,19,12,32,14,6,30.06,29.96,8,1,15,0.00
2013-4-26,90,78,60,35,26,13,33,16,6,30.24,30.05,11,1,15,0.00
2013-4-27,95,79,60,31,22,13,30,15,5,30.27,30.04,4,1,12,0.00
2013-4-28,99,83,62,31,22,11,26,13,4,30.08,29.84,7,1,9,0.00
2013-4-29,102,89,69,32,24,17,21,10,5,29.90,29.66,11,2,19,0.00
2013-4-30,98,91,82,37,32,28,17,13,10,29.77,29.62,13,5,24,0.00
2013-5-1,82,74,64,30,3,-7,15,6,3,30.46,29.80,16,6,22,0.00
2013-5-2,81,67,58,19,9,2,15,11,5,30.59,30.29,11,4,18,0.00
2013-5-3,90,75,56,26,9,-12,27,10,2,30.30,29.88,4,1,8,0.00
2013-5-4,94,79,58,27,14,2,25,10,4,29.88,29.65,11,2,20,0.00
2013-5-5,83,76,66,29,24,19,25,15,10,29.89,29.74,13,3,20,0.00
2013-5-6,79,71,64,48,38,26,47,31,20,30.01,29.89,15,4,21,0.00
2013-5-7,75,67,59,43,39,36,51,37,25,30.08,29.98,11,3,20,0.00
2013-5-8,81,69,57,43,40,37,57,37,23,30.19,30.08,9,1,14,0.00
2013-5-9,82,71,58,48,42,38,57,37,22,30.16,30.07,8,1,17,0.00
2013-5-10,92,77,61,48,42,33,58,33,13,30.22,30.10,8,2,13,0.00
2013-5-11,97,82,65,44,37,28,41,22,10,30.26,30.12,4,1,14,0.00
2013-5-12,101,86,68,38,32,25,32,16,7,30.24,30.03,4,1,9,0.00
2013-5-13,104,90,70,39,30,24,28,14,6,30.11,29.90,6,1,13,0.00
2013-5-14,103,93,83,39,28,7,19,11,4,29.94,29.74,15,5,22,0.00
2013-5-15,100,87,75,37,32,24,24,14,9,29.94,29.79,15,4,24,0.00
2013-5-16,96,86,77,35,28,13,20,13,5,29.87,29.72,19,5,22,0.00
2013-5-17,87,79,72,41,37,32,31,23,16,29.95,29.77,14,5,25,0.00
2013-5-18,92,81,67,43,36,20,38,22,9,30.04,29.89,9,2,13,0.00
2013-5-19,91,80,68,36,28,19,26,16,9,30.07,29.92,12,3,17,0.00
2013-5-20,88,78,64,38,27,19,36,17,8,30.18,30.02,12,2,16,0.00
2013-5-21,96,82,66,36,28,9,27,15,4,30.05,29.73,13,2,17,0.00
2013-5-22,94,85,75,35,24,-7,21,13,2,29.74,29.60,25,7,32,0.00
2013-5-23,91,79,67,35,15,-24,26,12,1,29.89,29.66,22,7,28,0.00
2013-5-24,94,81,66,29,20,10,22,11,6,30.00,29.84,10,2,17,0.00
2013-5-25,95,83,72,32,22,8,22,12,4,29.97,29.85,12,4,20,0.00
2013-5-26,92,83,73,34,30,27,22,15,10,29.96,29.86,15,5,30,0.00
2013-5-27,96,84,70,37,31,24,27,16,8,29.96,29.75,11,3,18,0.00
2013-5-28,95,84,73,37,30,15,24,15,8,29.80,29.64,13,4,18,0.00
2013-5-29,94,82,66,39,34,31,32,19,12,29.89,29.68,10,2,13,0.00
2013-5-30,102,88,72,39,31,21,28,14,7,29.91,29.72,9,2,16,0.00
2013-5-31,100,88,72,35,24,17,19,10,6,30.02,29.80,8,2,17,0.00
2013-6-1,102,88,74,32,20,5,16,9,3,30.07,29.83,7,1,12,0.00
2013-6-2,108,91,70,36,25,9,24,11,3,29.86,29.64,9,2,17,0.00
2013-6-3,105,95,84,40,31,22,20,11,6,29.79,29.69,8,2,16,0.00
2013-6-4,105,93,76,42,31,19,23,12,5,29.88,29.75,6,1,17,0.00
2013-6-5,107,94,77,36,29,22,19,10,5,29.95,29.77,5,1,10,0.00
2013-6-6,110,98,82,40,29,19,21,10,4,29.90,29.73,6,1,17,0.00
2013-6-7,113,98,81,40,27,5,19,9,2,29.87,29.69,7,1,13,0.00
2013-6-8,114,101,81,38,27,21,19,8,4,29.80,29.69,15,2,19,0.00
2013-6-9,110,98,83,41,30,15,18,9,4,29.87,29.74,14,2,17,0.00
2013-6-10,104,92,81,44,28,13,23,11,5,29.85,29.71,17,5,31,0.00
2013-6-11,104,91,74,40,34,25,28,14,7,29.99,29.83,9,2,18,0.00
2013-6-12,109,98,85,37,32,22,18,10,5,29.93,29.79,16,4,22,0.00
2013-6-13,103,93,81,42,22,-17,23,10,1,29.91,29.79,13,5,23,0.00
2013-6-14,105,92,77,30,10,-19,16,6,1,29.93,29.74,14,3,18,0.00
2013-6-15,105,90,69,34,9,-18,22,7,1,29.91,29.80,13,2,20,0.00
2013-6-16,103,90,76,27,10,-19,15,7,1,30.00,29.87,16,2,19,0.00
2013-6-17,106,94,76,33,18,3,18,7,3,29.98,29.80,13,3,16,0.00
2013-6-18,104,94,82,29,21,-1,14,8,2,29.85,29.67,17,6,26,0.00
2013-6-19,100,90,78,37,24,6,21,11,3,29.81,29.68,18,5,27,0.00
2013-6-20,101,89,78,19,12,-2,10,6,3,29.86,29.74,11,3,20,0.00
2013-6-21,102,91,80,32,22,10,16,9,4,29.88,29.73,12,4,21,0.00
2013-6-22,103,91,78,28,24,19,14,9,5,29.90,29.73,11,2,17,0.00
2013-6-23,102,92,76,37,30,22,20,12,6,29.79,29.62,17,4,25,0.00
2013-6-24,94,86,79,48,40,30,29,20,11,29.85,29.68,14,5,25,0.00
2013-6-25,102,90,78,51,48,43,37,24,15,29.97,29.85,13,3,21,0.00
2013-6-26,109,97,83,53,49,44,33,21,13,30.01,29.88,9,2,13,0.00
2013-6-27,112,99,82,53,47,37,33,18,10,30.08,29.92,5,1,11,0.00
2013-6-28,118,103,83,52,44,37,30,15,7,30.00,29.79,6,1,8,0.00
2013-6-29,120,106,89,51,40,34,22,12,6,29.88,29.70,6,1,11,0.00
2013-6-30,121,107,88,47,39,31,23,11,5,29.83,29.66,7,1,14,0.00
2013-7-1,117,106,96,54,48,37,24,14,9,29.84,29.72,9,2,20,0.00
2013-7-2,117,106,91,52,47,40,24,15,8,29.89,29.71,7,2,14,0.00
2013-7-3,116,105,93,55,47,37,26,14,7,29.84,29.64,8,2,14,0.00
2013-7-4,115,104,91,55,49,45,23,16,10,29.74,29.58,8,2,12,0.00
2013-7-5,109,101,90,65,54,45,35,21,15,29.76,29.63,12,3,19,0.06
2013-7-6,107,101,99,54,48,44,22,16,14,29.82,29.69,8,2,12,0.00
2013-7-7,106,94,81,72,55,46,67,29,16,29.86,29.71,13,1,16,0.26
2013-7-8,110,99,82,53,33,23,35,12,5,29.94,29.82,11,4,17,0.00
2013-7-9,112,100,83,43,32,24,21,10,5,30.03,29.88,13,4,20,0.00
2013-7-10,110,99,85,61,50,33,29,20,11,29.95,29.78,8,3,19,0.00
2013-7-11,95,88,83,66,62,55,54,41,27,29.97,29.83,14,3,21,0.00
2013-7-12,96,87,80,67,62,56,56,44,30,30.02,29.89,5,1,10,0.00
2013-7-13,106,93,79,63,57,48,56,33,15,30.02,29.85,7,1,16,0.00
2013-7-14,91,87,83,56,52,48,33,30,26,29.92,29.89,2,0,3,0.00
2013-7-24,109,103,97,59,55,53,23,20,17,29.87,29.79,7,2,9,0.00
2013-7-25,113,101,87,59,55,51,34,22,14,29.95,29.82,15,3,20,0.00
2013-7-26,107,96,85,63,59,54,44,30,21,30.06,29.94,16,3,20,0.00
2013-7-27,97,88,79,64,63,60,58,45,33,30.11,29.90,10,3,16,0.00
2013-7-28,98,87,79,68,61,53,61,43,27,29.93,29.82,22,2,32,0.02
2013-7-29,105,89,72,60,52,40,63,33,13,30.01,29.91,9,1,15,0.00
2013-7-30,105,94,79,50,46,36,30,19,13,30.11,29.98,8,2,15,0.00
2013-7-31,110,96,78,58,50,44,44,23,11,30.09,29.88,11,2,18,0.00
2013-8-1,108,97,85,51,35,21,22,12,6,29.94,29.78,15,3,25,0.00
2013-8-2,106,94,84,41,31,19,18,11,5,29.94,29.81,8,2,16,0.00
2013-8-3,106,92,75,43,37,32,29,16,8,30.00,29.87,8,1,19,0.00
2013-8-4,108,95,78,48,39,31,30,16,8,30.00,29.84,8,2,16,0.00
2013-8-5,107,95,79,45,31,16,30,12,5,29.99,29.83,12,2,16,0.00
2013-8-6,105,94,80,48,36,18,23,14,6,29.98,29.86,7,2,15,0.00
2013-8-7,102,93,85,37,22,6,17,9,3,30.01,29.89,14,4,19,0.00
2013-8-8,101,91,81,34,29,21,17,11,6,29.97,29.84,12,4,22,0.00
2013-8-9,103,92,81,35,30,25,17,11,7,29.96,29.84,10,2,15,0.00
2013-8-10,102,90,72,38,30,22,26,13,6,30.02,29.90,7,2,18,0.00
2013-8-11,104,90,70,43,28,14,32,13,4,30.04,29.87,6,1,16,0.00
2013-8-12,105,91,70,43,28,16,29,12,4,30.02,29.86,5,1,9,0.00
2013-8-13,106,92,72,38,25,10,23,11,4,30.03,29.89,8,1,11,0.00
2013-8-14,107,91,72,37,29,17,25,12,5,30.03,29.86,8,1,12,0.00
2013-8-15,109,93,75,51,41,26,26,17,10,30.03,29.86,5,1,10,0.00
2013-8-16,111,98,82,57,52,46,37,22,13,29.99,29.83,7,1,11,0.00
2013-8-17,112,99,83,54,49,42,35,20,10,29.97,29.78,14,2,18,0.00
2013-8-18,104,88,75,71,59,53,80,42,20,30.12,29.88,19,2,31,0.54
2013-8-19,100,87,74,68,63,58,81,49,26,30.15,29.93,4,1,7,0.02
2013-8-20,108,95,80,65,58,48,59,33,15,29.98,29.80,6,1,12,0.00
2013-8-21,108,96,82,57,51,41,42,24,12,29.98,29.83,6,1,9,0.00
2013-8-22,106,94,82,57,51,46,37,24,14,29.99,29.85,12,2,17,0.00
2013-8-23,97,87,80,65,59,51,56,40,26,30.00,29.83,13,2,21,0.01
2013-8-24,94,85,77,64,60,54,63,44,27,30.00,29.89,22,2,26,0.00
2013-8-25,93,80,73,67,62,58,70,54,33,30.15,29.99,10,2,18,0.00
2013-8-26,79,76,73,69,66,63,84,72,62,30.18,30.07,4,1,7,0.04
2013-8-27,97,84,69,65,63,59,83,54,30,30.09,29.90,5,1,10,0.00
2013-8-28,103,90,79,65,62,60,56,40,25,30.01,29.90,7,1,14,0.00
2013-8-29,102,91,80,67,64,61,57,42,28,30.09,29.97,8,1,12,0.00
2013-8-30,96,86,76,74,69,61,91,58,41,30.16,30.00,4,1,9,0.10
2013-8-31,97,86,80,72,68,65,69,57,39,30.07,29.93,9,1,18,0.00
2013-9-1,98,86,77,71,69,66,76,58,37,30.04,29.89,9,1,9,0.00
2013-9-2,102,87,80,75,67,63,77,53,30,30.04,29.87,6,0,24,0.53
2013-9-3,98,87,75,68,63,55,79,47,25,30.10,29.93,5,1,17,0.04
2013-9-4,104,88,78,70,62,56,73,45,20,30.07,29.94,18,1,22,0.17
2013-9-5,104,89,74,68,61,54,75,44,20,30.08,29.93,5,1,9,0.00
2013-9-6,102,88,76,63,59,51,61,38,22,30.02,29.92,18,2,19,0.00
2013-9-7,91,85,80,65,60,57,57,44,36,30.06,29.97,4,0,12,0.00
2013-9-8,89,79,70,69,66,61,93,66,46,30.07,29.90,5,1,8,0.37
2013-9-9,95,80,70,69,65,57,86,64,32,29.95,29.78,11,1,26,0.28
2013-9-10,89,78,72,66,62,57,82,59,38,30.00,29.92,7,1,12,0.00
2013-9-11,84,75,70,66,62,55,84,66,41,30.10,29.99,8,1,21,0.09
2013-9-12,88,77,68,65,62,58,88,63,39,30.14,29.97,4,0,6,0.00
2013-9-13,96,84,71,63,60,55,73,48,26,30.00,29.77,5,0,7,0.00
2013-9-14,97,85,73,62,58,52,63,42,24,29.89,29.76,5,0,7,0.00
2013-9-15,100,88,73,58,55,50,56,34,21,29.94,29.81,4,1,8,0.00
2013-9-16,103,90,75,57,52,44,49,29,16,29.96,29.78,6,1,11,0.00
2013-9-17,102,91,75,52,40,24,42,19,8,29.83,29.64,17,3,27,0.00
2013-9-18,97,86,75,39,33,22,25,15,7,29.84,29.71,9,2,17,0.00
2013-9-19,97,82,69,40,36,28,32,20,9,29.99,29.84,8,1,13,0.00
2013-9-20,99,84,65,45,38,33,45,22,11,29.97,29.79,10,2,14,0.00
2013-9-21,97,85,70,48,38,22,38,21,7,29.87,29.65,17,4,25,0.00
2013-9-22,83,74,65,45,39,33,40,28,19,29.95,29.65,17,5,30,0.00
2013-9-23,91,77,64,39,35,30,37,23,12,30.11,29.95,5,1,9,0.00
2013-9-24,96,80,60,40,35,26,45,23,9,30.09,29.80,12,2,22,0.00
2013-9-25,90,82,72,40,32,20,30,18,8,29.80,29.55,24,7,32,0.00
2013-9-26,78,69,62,38,28,17,32,22,14,30.02,29.64,20,5,29,0.00
2013-9-27,78,66,54,34,31,26,42,27,17,30.22,30.02,10,1,15,0.00
2013-9-28,85,69,54,37,30,21,45,25,10,30.32,30.18,5,0,8,0.00
2013-9-29,90,73,55,35,28,18,40,22,8,30.26,30.05,7,1,11,0.00
2013-9-30,90,75,58,37,32,28,39,22,11,30.11,29.93,4,0,11,0.00
2013-10-1,94,78,60,41,35,28,44,24,11,30.04,29.88,7,1,15,0.00
2013-10-2,94,80,68,43,38,32,36,22,14,29.98,29.81,14,2,23,0.00
2013-10-3,88,76,65,37,28,5,26,18,8,30.14,29.80,12,4,22,0.00
2013-10-4,73,65,57,27,23,17,28,20,16,30.45,30.14,13,4,19,0.00
2013-10-5,77,65,50,29,25,22,41,23,13,30.56,30.39,8,2,13,0.00
2013-10-6,85,68,53,30,24,14,40,22,7,30.45,30.21,5,1,7,0.00
2013-10-7,83,68,54,34,29,23,40,25,12,30.21,29.99,3,0,8,0.00
2013-10-8,87,71,52,32,26,18,43,21,8,29.98,29.76,11,2,18,0.00
2013-10-9,71,65,54,44,36,28,67,35,21,29.85,29.68,10,3,20,0.01
2013-10-10,68,61,54,43,41,39,67,48,37,30.14,29.84,12,2,17,0.00
2013-10-11,75,63,50,43,41,39,70,47,28,30.26,30.12,3,0,7,0.00
2013-10-12,80,66,52,43,38,34,61,38,22,30.18,29.98,4,1,9,0.00
2013-10-13,78,68,60,39,35,28,43,30,16,30.19,29.94,15,2,21,0.00
2013-10-14,76,64,53,39,36,32,57,37,21,30.32,30.18,5,1,9,0.00
2013-10-15,76,65,53,35,31,26,49,30,17,30.28,30.16,9,2,14,0.00
2013-10-16,76,62,51,32,28,22,44,29,14,30.39,30.23,5,0,10,0.00
2013-10-17,80,62,46,31,27,22,52,30,12,30.28,30.10,3,0,5,0.00
2013-10-18,81,65,49,33,28,25,47,27,13,30.31,30.16,4,1,9,0.00
2013-10-19,84,66,49,34,29,23,49,27,11,30.31,30.14,4,0,7,0.00
2013-10-20,85,66,50,32,27,21,45,25,10,30.17,30.01,3,0,7,0.00
2013-10-21,86,69,52,35,28,21,42,23,12,30.23,30.09,4,1,7,0.00
2013-10-22,86,69,52,39,30,25,48,27,11,30.27,30.11,5,1,7,0.00
2013-10-23,85,68,54,36,30,24,48,27,11,30.17,30.03,3,0,6,0.00
2013-10-24,88,71,55,36,30,26,42,24,11,30.16,30.04,5,0,7,0.00
2013-10-25,88,70,56,38,35,31,49,29,14,30.27,30.15,5,0,8,0.00
2013-10-26,88,70,54,37,34,32,49,29,14,30.35,30.16,3,0,6,0.00
2013-10-27,87,71,54,37,31,24,50,26,11,30.16,29.68,13,2,25,0.00
2013-10-28,72,65,57,38,34,27,44,32,22,29.93,29.62,22,9,39,0.00
2013-10-29,66,59,53,39,35,32,54,43,29,30.13,29.94,10,4,18,0.00
2013-10-30,68,57,47,39,35,31,64,46,27,30.27,30.13,4,0,10,0.00
2013-10-31,71,57,44,33,32,29,59,40,23,30.40,30.26,4,0,6,0.00
2013-11-1,77,61,48,37,34,31,56,38,21,30.44,30.27,5,1,7,0.00
2013-11-2,78,61,46,36,33,30,64,39,18,30.29,29.98,3,0,7,0.00
2013-11-3,79,62,48,34,30,27,51,33,16,30.01,29.91,4,0,7,0.00
2013-11-4,66,58,48,33,27,23,45,32,21,30.23,29.95,7,1,12,0.00
2013-11-5,64,53,44,29,20,15,52,30,17,30.51,30.23,7,2,15,0.00
2013-11-6,70,54,38,27,22,18,57,32,14,30.61,30.48,4,1,6,0.00
2013-11-7,75,58,43,29,25,21,53,32,15,30.50,30.28,3,0,6,0.00
2013-11-8,75,58,43,29,26,22,52,32,14,30.32,30.15,3,0,4,0.00
2013-11-9,76,59,45,30,27,23,51,32,14,30.33,30.22,3,0,5,0.00
2013-11-10,79,60,44,32,29,24,54,34,14,30.40,30.28,4,0,6,0.00
2013-11-11,81,62,46,33,30,27,57,34,14,30.41,30.29,5,1,7,0.00
2013-11-12,80,65,50,35,29,25,48,29,14,30.48,30.34,4,0,6,0.00
2013-11-13,84,66,52,32,28,24,42,27,11,30.34,30.17,5,0,6,0.00
2013-11-14,80,64,53,37,30,26,39,29,17,30.26,29.83,4,0,6,0.00
2013-11-15,78,65,54,32,29,25,39,27,15,29.82,29.71,4,1,7,0.00
2013-11-16,70,60,47,38,33,26,48,37,28,30.02,29.80,14,3,22,0.00
2013-11-17,70,58,46,41,39,36,70,50,34,30.30,30.03,4,1,8,0.00
2013-11-18,71,57,44,41,39,37,77,54,33,30.36,30.17,4,0,5,0.00
2013-11-19,70,58,50,43,41,39,69,53,36,30.17,30.05,1,0,4,0.00
2013-11-20,69,58,50,43,41,38,68,54,39,30.07,29.96,5,0,7,0.00
2013-11-21,70,55,46,52,46,41,91,73,42,30.23,29.96,6,1,13,0.74
2013-11-22,50,47,45,43,42,41,90,83,74,30.28,30.18,7,1,14,0.22
2013-11-23,49,47,46,46,44,42,91,87,82,30.37,30.24,3,0,5,0.31
2013-11-24,59,51,46,44,42,39,85,72,49,30.41,30.35,4,0,6,0.00
2013-11-25,66,52,41,41,39,36,88,64,34,30.51,30.41,4,0,6,0.00
2013-11-26,69,53,40,40,37,31,87,59,27,30.57,30.40,6,0,6,0.00
2013-11-27,66,54,44,40,38,36,79,58,33,30.41,30.21,4,0,6,0.00
2013-11-28,65,52,43,42,38,37,82,61,36,30.36,30.22,4,1,6,0.00
2013-11-29,68,52,40,40,38,35,85,61,33,30.47,30.36,3,0,5,0.00
2013-11-30,68,53,43,40,37,34,78,58,30,30.49,30.36,4,0,7,0.00
2013-12-1,68,52,39,37,35,33,79,56,29,30.56,30.41,2,0,5,0.00
2013-12-2,67,51,40,40,37,34,84,62,35,30.43,29.98,3,0,5,0.00
2013-12-3,72,56,42,42,38,32,84,56,30,29.98,29.59,25,5,29,0.01
2013-12-4,49,41,33,36,22,11,89,49,25,30.30,29.91,9,2,16,0.07
2013-12-5,44,34,26,19,14,10,66,46,27,30.41,30.28,3,0,8,0.00
2013-12-6,45,35,24,22,19,15,76,54,36,30.50,30.31,3,0,8,0.00
2013-12-7,54,44,32,34,24,6,68,46,23,30.30,29.96,17,4,26,0.00
2013-12-8,46,37,29,15,9,5,50,32,20,30.54,30.26,9,1,13,0.00
2013-12-9,42,34,25,13,8,3,53,35,19,30.81,30.53,12,1,16,0.00
2013-12-10,49,35,23,18,12,8,64,41,20,30.79,30.53,3,0,14,0.00
2013-12-11,56,40,26,23,19,15,70,45,24,30.67,30.56,5,1,7,0.00
2013-12-12,59,44,31,25,22,18,70,43,21,30.60,30.38,4,0,6,0.00
2013-12-13,58,44,32,27,24,22,70,48,25,30.61,30.36,3,0,5,0.00
2013-12-14,61,48,37,28,25,22,61,42,24,30.75,30.61,5,1,10,0.00
2013-12-15,65,48,36,30,28,26,71,48,25,30.70,30.53,4,0,6,0.00
2013-12-16,69,51,38,33,30,27,72,49,22,30.60,30.46,3,0,6,0.00
2013-12-17,69,52,39,35,31,29,71,49,23,30.56,30.34,2,0,5,0.00
2013-12-18,64,51,44,37,33,30,68,52,29,30.34,29.88,3,0,5,0.00
2013-12-19,64,53,42,40,34,28,71,50,33,29.96,29.79,7,1,13,0.00
2013-12-20,59,51,44,41,28,17,71,43,30,30.09,29.96,9,2,14,0.00
2013-12-21,65,50,38,31,24,15,52,38,25,30.29,30.03,5,0,9,0.00
2013-12-22,63,50,38,32,30,27,70,48,27,30.57,30.29,3,0,6,0.00
2013-12-23,66,50,38,34,32,29,75,53,30,30.69,30.56,4,0,5,0.00
2013-12-24,68,51,38,36,34,31,80,54,30,30.59,30.45,4,0,5,0.00
2013-12-25,66,52,42,31,26,19,62,39,17,30.66,30.52,5,1,9,0.00
2013-12-26,68,49,34,23,20,15,59,36,14,30.62,30.47,3,0,6,0.00
2013-12-27,70,50,36,26,22,18,56,37,14,30.57,30.35,3,0,6,0.00
2013-12-28,63,49,42,29,25,23,55,41,22,30.36,30.20,4,0,8,0.00
2013-12-29,60,50,42,25,19,15,48,31,17,30.53,30.36,11,1,15,0.00
2013-12-30,63,46,33,22,19,14,61,37,15,30.59,30.45,3,0,4,0.00
2013-12-31,62,47,34,25,22,19,58,39,19,30.51,30.36,2,0,5,0.00
2014-1-1,70,50,35,29,26,22,63,41,19,30.52,30.39,3,0,6,0.00
2014-1-2,69,50,37,31,28,25,69,45,20,30.49,30.33,3,0,5,0.00